LIEO/OLB METAR and TAF weather

Enter ICAO airport designator
Station Type Date Time Source
LIEO METAR 2020/01/28 20:50 UTC NOAA

LIEO 282050Z 26019KT CAVOK 13/07 Q1016


Station Type Date Time Source
LIEO Decoded METAR 2020/01/28 20:50 UTC NOAA

Olbia / Costa Smeralda, Italy (LIEO) 40-54N 009-31E 13M
Jan 28, 2020 - 03:50 PM EST / 2020.01.28 2050 UTC
Wind: from the W (260 degrees) at 22 MPH (19 KT):0
Visibility: greater than 7 mile(s):0
Temperature: 55 F (13 C)
Dew Point: 44 F (7 C)
Relative Humidity: 66%
Pressure (altimeter): 30.00 in. Hg (1016 hPa)
ob: LIEO 282050Z 26019KT CAVOK 13/07 Q1016
cycle: 21

Station Type Date Time Source
LIEO TAF 2020/01/28 18:25 UTC NOAA

TAF LIEO 281700Z 2818/2918 24016G26KT 9999 SCT030

Example: see airport list